createdAt,value
2023-02-02T00:01:13.420Z,97957.88
2023-02-02T00:03:40.611Z,97958.75
2023-02-02T00:06:07.466Z,97964.09
2023-02-02T00:08:36.510Z,97958.75
2023-02-02T00:11:03.487Z,97965.81
2023-02-02T00:13:30.754Z,97962.28
2023-02-02T00:15:57.537Z,97966.78
2023-02-02T00:18:24.582Z,97968.38
2023-02-02T00:20:51.517Z,97959.50
2023-02-02T00:23:18.583Z,97965.25
2023-02-02T00:25:45.378Z,97963.34
2023-02-02T00:28:12.477Z,97969.44
2023-02-02T00:30:39.230Z,97965.16
2023-02-02T00:33:06.323Z,97975.00
2023-02-02T00:35:33.103Z,97973.38
2023-02-02T00:38:00.420Z,97971.25
2023-02-02T00:40:28.068Z,97974.78
2023-02-02T00:42:55.212Z,97979.25
2023-02-02T00:45:22.296Z,97979.16
2023-02-02T00:47:49.557Z,97977.34
2023-02-02T00:50:19.481Z,97979.16
2023-02-02T00:52:47.614Z,97979.16
2023-02-02T00:55:14.734Z,97983.44
2023-02-02T00:57:41.798Z,97979.91
2023-02-02T01:00:09.528Z,97988.00
2023-02-02T01:02:36.696Z,97982.56
2023-02-02T01:05:03.570Z,97988.91
2023-02-02T01:07:30.827Z,97990.69
2023-02-02T01:09:57.630Z,97990.59
2023-02-02T01:12:24.739Z,97994.03
2023-02-02T01:14:51.559Z,97995.81
2023-02-02T01:17:19.428Z,98002.91
2023-02-02T01:19:46.200Z,97997.66
2023-02-02T01:22:13.370Z,97999.38
2023-02-02T01:24:40.281Z,98005.56
2023-02-02T01:27:07.389Z,98001.81
2023-02-02T01:29:34.142Z,98001.94
2023-02-02T01:32:01.248Z,98005.56
2023-02-02T01:34:28.199Z,98003.94
2023-02-02T01:36:55.266Z,98000.44
2023-02-02T01:39:22.014Z,98019.13
2023-02-02T01:41:49.202Z,98021.69
2023-02-02T01:45:10.406Z,98004.81
2023-02-02T01:47:40.097Z,98006.41
2023-02-02T01:50:06.955Z,98019.78
2023-02-02T01:52:34.118Z,98018.09
2023-02-02T01:55:04.459Z,98018.94
2023-02-02T01:57:40.648Z,98025.22
2023-02-02T02:00:10.210Z,98018.09
2023-02-02T02:02:37.581Z,98022.44
2023-02-02T02:05:06.172Z,98028.53
2023-02-02T02:07:33.239Z,98021.50
2023-02-02T02:10:00.012Z,98019.78
2023-02-02T02:12:27.044Z,98018.09
2023-02-02T02:15:12.477Z,98016.16
2023-02-02T02:17:55.466Z,98019.88
2023-02-02T02:20:59.323Z,98011.75
2023-02-02T02:24:16.168Z,98016.16
2023-02-02T02:26:55.231Z,98017.00
2023-02-02T02:29:52.618Z,98019.13
2023-02-02T02:32:43.428Z,98028.66
2023-02-02T02:35:31.588Z,98028.66
2023-02-02T02:38:31.695Z,98035.69
2023-02-02T02:41:01.078Z,98040.19
2023-02-02T02:43:29.512Z,98044.00
2023-02-02T02:45:56.657Z,98040.28
2023-02-02T02:48:23.509Z,98046.19
2023-02-02T02:50:50.631Z,98049.06
2023-02-02T02:53:20.416Z,98048.22
2023-02-02T02:55:54.815Z,98047.38
2023-02-02T02:58:43.270Z,98050.97
2023-02-02T03:01:19.254Z,98048.13
2023-02-02T03:04:07.321Z,98048.97
2023-02-02T03:06:53.981Z,98056.03
2023-02-02T03:09:25.816Z,98047.22
2023-02-02T03:11:52.893Z,98054.19
2023-02-02T03:14:19.656Z,98059.84
2023-02-02T03:16:46.689Z,98056.97
2023-02-02T03:19:13.468Z,98053.75
2023-02-02T03:21:40.488Z,98058.91
2023-02-02T03:24:07.348Z,98061.38
2023-02-02T03:26:34.554Z,98073.75
2023-02-02T03:29:01.355Z,98058.81
2023-02-02T03:31:28.546Z,98061.38
2023-02-02T03:33:55.904Z,98057.06
2023-02-02T03:36:23.065Z,98067.56
2023-02-02T03:38:49.793Z,98066.63
2023-02-02T03:41:16.876Z,98061.56
2023-02-02T03:43:43.714Z,98054.09
2023-02-02T03:46:10.817Z,98052.47
2023-02-02T03:48:38.381Z,98060.72
2023-02-02T03:51:09.605Z,98062.41
2023-02-02T03:53:36.375Z,98063.41
2023-02-02T03:56:03.756Z,98055.38
2023-02-02T03:58:30.464Z,98058.91
2023-02-02T04:01:08.312Z,98051.72
2023-02-02T04:03:35.106Z,98052.56
2023-02-02T04:06:02.240Z,98043.72
2023-02-02T04:08:28.981Z,98044.69
2023-02-02T04:10:55.998Z,98046.59
2023-02-02T04:13:22.847Z,98038.47
2023-02-02T04:15:57.215Z,98034.00
2023-02-02T04:18:24.044Z,98034.97
2023-02-02T04:20:56.381Z,98033.13
2023-02-02T04:23:23.184Z,98023.53
2023-02-02T04:25:50.867Z,98026.84
2023-02-02T04:28:17.737Z,98032.38
2023-02-02T04:30:44.832Z,98034.97
2023-02-02T04:33:11.636Z,98030.34
2023-02-02T04:35:38.666Z,98027.78
2023-02-02T04:38:05.422Z,98030.66
2023-02-02T04:40:32.584Z,98027.03
2023-02-02T04:42:59.312Z,98035.91
2023-02-02T04:45:26.688Z,98031.34
2023-02-02T04:47:53.569Z,98035.06
2023-02-02T04:50:20.639Z,98035.81
2023-02-02T04:52:47.391Z,98031.44
2023-02-02T04:55:14.644Z,98023.41
2023-02-02T04:57:41.420Z,98039.13
2023-02-02T05:00:11.345Z,98031.44
2023-02-02T05:02:39.042Z,98028.66
2023-02-02T05:05:07.336Z,98039.75
2023-02-02T05:07:34.139Z,98037.63
2023-02-02T05:10:01.256Z,98034.09
2023-02-02T05:12:28.004Z,98030.47
2023-02-02T05:14:55.101Z,98035.69
2023-02-02T05:17:21.851Z,98030.47
2023-02-02T05:19:48.864Z,98026.94
2023-02-02T05:22:15.580Z,98024.28
2023-02-02T05:24:42.572Z,98031.63
2023-02-02T05:27:09.328Z,98022.44
2023-02-02T05:29:36.415Z,98021.69
2023-02-02T05:32:03.275Z,98030.56
2023-02-02T05:34:30.315Z,98027.69
2023-02-02T05:36:57.067Z,98027.97
2023-02-02T05:39:24.191Z,98026.28
2023-02-02T05:41:50.942Z,98027.78
2023-02-02T05:44:18.120Z,98025.22
2023-02-02T05:46:45.663Z,98026.75
2023-02-02T05:49:13.732Z,98023.41
2023-02-02T05:51:46.201Z,98020.66
2023-02-02T05:54:17.320Z,98014.88
2023-02-02T05:56:44.031Z,98020.75
2023-02-02T05:59:11.132Z,98013.59
2023-02-02T06:01:37.874Z,98012.84
2023-02-02T06:04:04.934Z,98011.84
2023-02-02T06:06:31.757Z,98019.78
2023-02-02T06:08:58.803Z,98011.56
2023-02-02T06:11:25.715Z,98018.09
2023-02-02T06:13:52.779Z,98011.31
2023-02-02T06:16:19.506Z,98014.50
2023-02-02T06:18:47.035Z,98024.13
2023-02-02T06:21:13.935Z,98017.09
2023-02-02T06:23:45.852Z,98028.81
2023-02-02T06:26:13.411Z,98040.34
2023-02-02T06:28:40.865Z,98048.69
2023-02-02T06:31:09.534Z,98042.47
2023-02-02T06:33:37.208Z,98030.19
2023-02-02T06:36:05.632Z,98036.06
2023-02-02T06:38:32.749Z,98034.34
2023-02-02T06:41:00.411Z,98021.19
2023-02-02T06:43:28.129Z,98024.53
2023-02-02T06:45:54.961Z,98017.09
2023-02-02T06:48:22.038Z,98012.59
2023-02-02T06:50:48.770Z,98013.03
2023-02-02T06:53:22.139Z,98017.72
2023-02-02T06:55:59.474Z,98026.03
2023-02-02T06:58:27.107Z,98021.19
2023-02-02T07:00:53.954Z,98030.53
2023-02-02T07:03:21.476Z,98031.09
2023-02-02T07:05:49.064Z,98026.88
2023-02-02T07:08:16.382Z,98034.91
2023-02-02T07:11:14.738Z,98043.25
2023-02-02T07:13:31.799Z,98033.22
2023-02-02T07:15:58.653Z,98050.19
2023-02-02T07:18:25.886Z,98041.97
2023-02-02T07:20:52.684Z,98046.47
2023-02-02T07:23:19.797Z,98037.66
2023-02-02T07:25:46.691Z,98041.31
2023-02-02T07:28:13.833Z,98044.19
2023-02-02T07:30:40.708Z,98046.09
2023-02-02T07:33:07.775Z,98043.25
2023-02-02T07:35:35.039Z,98037.13
2023-02-02T07:38:02.200Z,98062.88
2023-02-02T07:40:28.957Z,98061.34
2023-02-02T07:42:56.313Z,98058.38
2023-02-02T07:45:25.541Z,98064.72
2023-02-02T07:48:00.582Z,98060.00
2023-02-02T07:50:28.375Z,98050.81
2023-02-02T07:52:55.417Z,98055.72
2023-02-02T07:55:22.210Z,98046.97
2023-02-02T07:57:51.431Z,98049.72
2023-02-02T08:00:18.764Z,98055.91
2023-02-02T08:02:49.016Z,98054.03
2023-02-02T08:05:16.100Z,98055.16
2023-02-02T08:07:44.782Z,98062.31
2023-02-02T08:10:11.689Z,98071.94
2023-02-02T08:12:38.736Z,98067.94
2023-02-02T08:15:06.360Z,98071.44
2023-02-02T08:17:33.501Z,98071.84
2023-02-02T08:20:00.315Z,98073.66
2023-02-02T08:22:27.376Z,98080.50
2023-02-02T08:24:54.131Z,98070.38
2023-02-02T08:27:21.212Z,98080.75
2023-02-02T08:29:48.075Z,98065.72
2023-02-02T08:32:16.286Z,98072.66
2023-02-02T08:34:43.173Z,98075.53
2023-02-02T08:37:11.095Z,98093.19
2023-02-02T08:39:37.991Z,98087.94
2023-02-02T08:42:05.127Z,98101.56
2023-02-02T08:44:43.105Z,98093.91
2023-02-02T08:47:18.953Z,98103.56
2023-02-02T08:49:45.794Z,98106.34
2023-02-02T08:52:12.945Z,98100.34
2023-02-02T08:54:39.737Z,98099.75
2023-02-02T08:57:06.876Z,98114.75
2023-02-02T08:59:33.643Z,98116.25
2023-02-02T09:02:00.806Z,98119.59
2023-02-02T09:04:27.637Z,98113.69
2023-02-02T09:06:54.755Z,98129.72
2023-02-02T09:09:21.505Z,98128.66
2023-02-02T09:11:48.554Z,98120.53
2023-02-02T09:14:15.452Z,98126.63
2023-02-02T09:16:42.639Z,98118.13
2023-02-02T09:19:10.681Z,98129.84
2023-02-02T09:21:37.821Z,98137.88
2023-02-02T09:24:09.605Z,98131.97
2023-02-02T09:26:37.453Z,98132.06
2023-02-02T09:29:05.516Z,98134.00
2023-02-02T09:31:36.646Z,98136.47
2023-02-02T09:34:04.834Z,98138.19
2023-02-02T09:36:32.284Z,98156.94
2023-02-02T09:38:59.123Z,98154.47
2023-02-02T09:41:38.404Z,98154.53
2023-02-02T09:44:05.272Z,98161.59
2023-02-02T09:46:38.091Z,98167.78
2023-02-02T09:49:09.905Z,98166.94
2023-02-02T09:51:46.647Z,98177.53
2023-02-02T09:54:30.151Z,98175.72
2023-02-02T09:56:57.605Z,98181.91
2023-02-02T09:59:27.718Z,98178.28
2023-02-02T10:01:57.323Z,98176.47
2023-02-02T10:04:24.054Z,98174.72
2023-02-02T10:06:52.804Z,98171.78
2023-02-02T10:09:39.391Z,98171.56
2023-02-02T10:12:35.974Z,98171.66
2023-02-02T10:15:06.488Z,98178.00
2023-02-02T10:17:53.550Z,98173.59
2023-02-02T10:20:43.729Z,98190.56
2023-02-02T10:23:19.286Z,98183.09
2023-02-02T10:25:55.358Z,98192.00
2023-02-02T10:28:36.320Z,98210.72
2023-02-02T10:31:03.224Z,98198.31
2023-02-02T10:33:37.948Z,98198.75
2023-02-02T10:36:10.945Z,98211.19
2023-02-02T10:39:17.041Z,98221.00
2023-02-02T10:42:24.031Z,98219.28
2023-02-02T10:44:55.011Z,98209.66
2023-02-02T10:47:32.180Z,98219.28
2023-02-02T10:50:22.629Z,98224.00
2023-02-02T10:52:55.238Z,98242.69
2023-02-02T10:55:22.676Z,98237.13
2023-02-02T10:58:10.791Z,98241.53
2023-02-02T11:00:52.644Z,98247.81
2023-02-02T11:03:25.114Z,98258.41
2023-02-02T11:06:10.847Z,98242.19
2023-02-02T11:08:39.046Z,98248.41
2023-02-02T11:11:28.410Z,98248.28
2023-02-02T11:14:02.044Z,98250.00
2023-02-02T11:16:42.114Z,98249.16
2023-02-02T11:19:15.313Z,98253.53
2023-02-02T11:21:42.518Z,98263.19
2023-02-02T11:24:21.483Z,98257.00
2023-02-02T11:26:55.913Z,98255.91
2023-02-02T11:29:25.710Z,98260.81
2023-02-02T11:31:52.844Z,98264.91
2023-02-02T11:34:20.952Z,98259.25
2023-02-02T11:37:12.136Z,98272.50
2023-02-02T11:39:40.281Z,98258.59
2023-02-02T11:42:16.273Z,98261.06
2023-02-02T11:44:47.356Z,98262.78
2023-02-02T11:47:22.712Z,98262.56
2023-02-02T11:49:51.610Z,98267.72
2023-02-02T11:52:21.543Z,98280.81
2023-02-02T11:54:50.542Z,98286.06
2023-02-02T11:57:22.108Z,98290.31
2023-02-02T11:59:50.304Z,98275.25
2023-02-02T12:02:20.494Z,98290.91
2023-02-02T12:04:48.207Z,98298.47
2023-02-02T12:07:27.376Z,98295.56
2023-02-02T12:09:54.338Z,98293.88
2023-02-02T12:12:27.456Z,98291.41
2023-02-02T12:15:19.879Z,98297.09
2023-02-02T12:17:47.048Z,98298.81
2023-02-02T12:20:44.853Z,98310.94
2023-02-02T12:23:21.101Z,98301.63
2023-02-02T12:26:00.388Z,98310.66
2023-02-02T12:28:46.772Z,98306.78
2023-02-02T12:31:26.496Z,98307.97
2023-02-02T12:34:13.281Z,98306.69
2023-02-02T12:36:47.710Z,98317.94
2023-02-02T12:39:17.865Z,98308.75
2023-02-02T12:41:44.612Z,98314.00
2023-02-02T12:44:30.498Z,98304.03
2023-02-02T12:47:20.170Z,98317.50
2023-02-02T12:50:10.600Z,98326.06
2023-02-02T12:52:55.919Z,98319.44
2023-02-02T12:56:16.254Z,98324.81
2023-02-02T12:58:51.451Z,98326.03
2023-02-02T13:01:48.175Z,98325.94
2023-02-02T13:07:38.697Z,98334.81
2023-02-02T13:10:11.600Z,98335.66
2023-02-02T13:12:42.518Z,98344.00
2023-02-02T13:15:12.885Z,98341.91
2023-02-02T13:17:43.690Z,98343.03
2023-02-02T13:20:30.887Z,98354.38
2023-02-02T13:23:00.273Z,98355.78
2023-02-02T13:25:30.225Z,98368.97
2023-02-02T13:27:58.993Z,98366.47
2023-02-02T13:30:38.287Z,98375.44
2023-02-02T13:33:13.034Z,98384.66
2023-02-02T13:35:47.778Z,98394.38
2023-02-02T13:38:25.567Z,98385.41
2023-02-02T13:40:55.421Z,98393.06
2023-02-02T13:43:22.592Z,98397.88
2023-02-02T13:46:39.629Z,98398.53
2023-02-02T13:49:16.167Z,98397.66
2023-02-02T13:51:58.221Z,98393.16
2023-02-02T13:54:45.745Z,98405.03
2023-02-02T13:57:40.798Z,98397.88
2023-02-02T14:00:21.451Z,98412.00
2023-02-02T14:02:54.028Z,98408.38
2023-02-02T14:05:21.491Z,98414.66
2023-02-02T14:07:48.484Z,98417.34
2023-02-02T14:10:35.409Z,98423.56
2023-02-02T14:13:06.490Z,98432.47
2023-02-02T14:15:38.444Z,98435.31
2023-02-02T14:18:05.503Z,98433.50
2023-02-02T14:20:43.681Z,98438.75
2023-02-02T14:23:48.342Z,98446.78
2023-02-02T14:26:19.857Z,98448.50
2023-02-02T14:28:51.265Z,98460.94
2023-02-02T14:31:27.295Z,98461.50
2023-02-02T14:34:30.672Z,98475.84
2023-02-02T14:37:01.809Z,98476.03
2023-02-02T14:39:30.183Z,98473.16
2023-02-02T14:42:31.724Z,98473.16
2023-02-02T14:45:11.682Z,98488.19
2023-02-02T14:47:44.781Z,98488.47
2023-02-02T14:50:16.116Z,98484.72
2023-02-02T14:52:43.325Z,98492.09
2023-02-02T14:55:18.438Z,98489.13
2023-02-02T14:57:45.515Z,98497.44
2023-02-02T15:00:23.090Z,98499.91
2023-02-02T15:02:53.514Z,98507.19
2023-02-02T15:05:39.032Z,98516.47
2023-02-02T15:08:07.313Z,98508.63
2023-02-02T15:11:24.284Z,98530.69
2023-02-02T15:13:54.625Z,98536.81
2023-02-02T15:16:27.639Z,98535.69
2023-02-02T15:19:13.553Z,98533.94
2023-02-02T15:21:40.481Z,98532.97
2023-02-02T15:24:17.058Z,98539.97
2023-02-02T15:26:43.960Z,98544.34
2023-02-02T15:29:17.327Z,98544.63
2023-02-02T15:31:49.753Z,98549.31
2023-02-02T15:34:42.876Z,98560.78
2023-02-02T15:37:14.513Z,98572.47
2023-02-02T15:39:51.845Z,98579.81
2023-02-02T15:42:49.122Z,98591.47
2023-02-02T15:45:28.767Z,98597.38
2023-02-02T15:47:56.281Z,98606.34
2023-02-02T15:50:23.325Z,98614.28
2023-02-02T15:52:50.888Z,98610.00
2023-02-02T15:55:39.602Z,98615.44
2023-02-02T15:58:32.093Z,98623.56
2023-02-02T16:01:30.373Z,98634.34
2023-02-02T16:03:57.117Z,98643.41
2023-02-02T16:06:24.205Z,98650.41
2023-02-02T16:08:50.957Z,98663.19
2023-02-02T16:11:20.094Z,98668.28
2023-02-02T16:14:08.207Z,98668.47
2023-02-02T16:16:36.875Z,98675.63
2023-02-02T16:19:06.788Z,98679.25
2023-02-02T16:21:34.649Z,98675.63
2023-02-02T16:24:01.733Z,98685.53
2023-02-02T16:26:29.601Z,98685.84
2023-02-02T16:28:56.385Z,98691.06
2023-02-02T16:31:23.477Z,98695.56
2023-02-02T16:33:51.324Z,98701.88
2023-02-02T16:36:24.522Z,98712.47
2023-02-02T16:38:52.520Z,98716.19
2023-02-02T16:41:34.286Z,98715.50
2023-02-02T16:44:39.132Z,98730.59
2023-02-02T16:47:26.137Z,98745.94
2023-02-02T16:49:53.241Z,98748.72
2023-02-02T16:52:21.365Z,98747.69
2023-02-02T16:54:55.247Z,98760.38
2023-02-02T16:57:25.408Z,98760.56
2023-02-02T17:00:00.149Z,98762.53
2023-02-02T17:02:28.567Z,98764.44
2023-02-02T17:05:01.178Z,98765.31
2023-02-02T17:07:28.878Z,98774.25
2023-02-02T17:10:19.095Z,98779.78
2023-02-02T17:12:46.206Z,98773.66
2023-02-02T17:15:34.967Z,98775.56
2023-02-02T17:18:03.972Z,98776.34
2023-02-02T17:20:30.762Z,98786.44
2023-02-02T17:23:00.250Z,98786.59
2023-02-02T17:25:36.165Z,98792.03
2023-02-02T17:28:03.606Z,98796.44
2023-02-02T17:30:30.551Z,98796.53
2023-02-02T17:32:57.775Z,98802.03
2023-02-02T17:35:26.674Z,98812.72
2023-02-02T17:37:54.243Z,98818.06
2023-02-02T17:40:23.255Z,98823.16
2023-02-02T17:42:51.913Z,98834.19
2023-02-02T17:45:23.253Z,98840.22
2023-02-02T17:47:50.928Z,98841.28
2023-02-02T17:50:17.799Z,98844.81
2023-02-02T17:52:45.998Z,98852.94
2023-02-02T17:55:14.365Z,98854.63
2023-02-02T17:57:41.509Z,98862.69
2023-02-02T18:00:08.956Z,98875.44
2023-02-02T18:02:36.158Z,98880.31
2023-02-02T18:05:04.039Z,98894.78
2023-02-02T18:07:31.158Z,98893.75
2023-02-02T18:09:58.002Z,98894.19
2023-02-02T18:12:25.170Z,98903.13
2023-02-02T18:14:51.945Z,98907.63
2023-02-02T18:17:19.176Z,98912.66
2023-02-02T18:19:47.272Z,98912.13
2023-02-02T18:22:14.506Z,98917.41
2023-02-02T18:24:41.366Z,98929.03
2023-02-02T18:27:08.968Z,98936.34
2023-02-02T18:29:36.058Z,98936.34
2023-02-02T18:32:03.282Z,98943.59
2023-02-02T18:34:33.426Z,98955.31
2023-02-02T18:37:00.547Z,98966.09
2023-02-02T18:39:27.405Z,98965.16
2023-02-02T18:41:54.470Z,98978.59
2023-02-02T18:44:22.412Z,98982.22
2023-02-02T18:46:50.789Z,98973.50
2023-02-02T18:49:18.024Z,98987.72
2023-02-02T18:51:46.306Z,98990.66
2023-02-02T18:54:13.101Z,99000.38
2023-02-02T18:56:40.312Z,99003.13
2023-02-02T18:59:07.137Z,99005.81
2023-02-02T19:01:34.285Z,99015.03
2023-02-02T19:04:01.348Z,99010.78
2023-02-02T19:06:46.967Z,99030.53
2023-02-02T19:09:14.345Z,99035.88
2023-02-02T19:11:44.473Z,99044.81
2023-02-02T19:14:19.395Z,99058.34
2023-02-02T19:16:48.350Z,99056.63
2023-02-02T19:19:33.425Z,99065.56
2023-02-02T19:22:01.876Z,99074.56
2023-02-02T19:24:40.095Z,99089.63
2023-02-02T19:27:23.063Z,99087.84
2023-02-02T19:29:52.014Z,99092.63
2023-02-02T19:32:23.573Z,99093.63
2023-02-02T19:34:55.269Z,99090.31
2023-02-02T19:37:27.530Z,99088.59
2023-02-02T19:40:09.681Z,99099.34
2023-02-02T19:42:59.633Z,99095.97
2023-02-02T19:45:30.138Z,99100.59
2023-02-02T19:47:57.989Z,99105.22
2023-02-02T19:50:26.891Z,99107.81
2023-02-02T19:52:54.606Z,99120.41
2023-02-02T19:55:29.248Z,99123.16
2023-02-02T19:58:01.351Z,99131.03
2023-02-02T20:00:29.939Z,99136.38
2023-02-02T20:03:00.901Z,99140.81
2023-02-02T20:05:48.500Z,99154.25
2023-02-02T20:08:25.935Z,99157.88
2023-02-02T20:10:56.246Z,99153.53
2023-02-02T20:13:42.002Z,99159.75
2023-02-02T20:16:15.744Z,99162.56
2023-02-02T20:18:45.341Z,99168.63
2023-02-02T20:21:39.079Z,99167.03
2023-02-02T20:24:18.216Z,99169.50
2023-02-02T20:26:45.113Z,99168.00
2023-02-02T20:29:15.176Z,99172.44
2023-02-02T20:31:42.032Z,99172.53
2023-02-02T20:34:37.992Z,99188.47
2023-02-02T20:37:15.964Z,99194.00
2023-02-02T20:39:47.902Z,99193.16
2023-02-02T20:42:15.088Z,99194.25
2023-02-02T20:44:42.622Z,99203.00
2023-02-02T20:47:09.954Z,99197.84
2023-02-02T20:49:38.868Z,99213.16
2023-02-02T20:52:08.185Z,99206.91
2023-02-02T20:54:35.270Z,99206.97
2023-02-02T20:57:02.414Z,99213.22
2023-02-02T20:59:29.532Z,99210.63
2023-02-02T21:01:56.387Z,99211.66
2023-02-02T21:04:23.483Z,99215.31
2023-02-02T21:06:50.321Z,99220.72
2023-02-02T21:09:17.561Z,99227.69
2023-02-02T21:11:44.425Z,99219.72
2023-02-02T21:14:11.585Z,99221.69
2023-02-02T21:16:38.544Z,99232.38
2023-02-02T21:19:05.629Z,99239.47
2023-02-02T21:21:32.453Z,99246.72
2023-02-02T21:24:00.817Z,99245.00
2023-02-02T21:26:30.250Z,99237.78
2023-02-02T21:28:58.466Z,99246.72
2023-02-02T21:31:25.718Z,99250.34
2023-02-02T21:33:53.276Z,99250.16
2023-02-02T21:36:39.164Z,99243.97
2023-02-02T21:39:25.760Z,99255.56
2023-02-02T21:42:07.345Z,99256.66
2023-02-02T21:44:35.433Z,99259.34
2023-02-02T21:47:02.362Z,99261.22
2023-02-02T21:49:35.676Z,99262.94
2023-02-02T21:52:10.068Z,99268.38
2023-02-02T21:54:37.240Z,99272.81
2023-02-02T21:57:22.252Z,99268.38
2023-02-02T21:59:58.447Z,99278.22
2023-02-02T22:02:44.481Z,99280.09
2023-02-02T22:05:47.519Z,99274.75
2023-02-02T22:08:24.207Z,99280.03
2023-02-02T22:10:51.287Z,99280.03
2023-02-02T22:13:20.070Z,99272.09
2023-02-02T22:15:48.110Z,99268.50
2023-02-02T22:18:23.199Z,99266.81
2023-02-02T22:20:51.857Z,99272.09
2023-02-02T22:23:20.329Z,99276.69
2023-02-02T22:25:48.744Z,99280.28
2023-02-02T22:28:21.583Z,99290.13
2023-02-02T22:30:49.378Z,99285.63
2023-02-02T22:33:16.338Z,99288.44
2023-02-02T22:35:43.510Z,99293.72
2023-02-02T22:38:10.600Z,99299.19
2023-02-02T22:40:38.019Z,99306.38
2023-02-02T22:43:05.883Z,99312.63
2023-02-02T22:45:33.074Z,99313.78
2023-02-02T22:47:59.857Z,99316.41
2023-02-02T22:50:28.888Z,99317.34
2023-02-02T22:52:56.001Z,99323.72
2023-02-02T22:55:23.735Z,99334.47
2023-02-02T22:57:50.573Z,99329.00
2023-02-02T23:00:20.315Z,99335.38
2023-02-02T23:02:47.117Z,99331.06
2023-02-02T23:05:16.690Z,99345.44
2023-02-02T23:07:44.262Z,99344.53
2023-02-02T23:10:18.940Z,99341.75
2023-02-02T23:12:46.142Z,99345.44
2023-02-02T23:15:13.628Z,99347.41
2023-02-02T23:17:40.456Z,99352.84
2023-02-02T23:20:09.445Z,99358.94
2023-02-02T23:22:36.266Z,99367.03
2023-02-02T23:25:03.401Z,99369.84
2023-02-02T23:27:30.357Z,99375.91
2023-02-02T23:29:57.392Z,99371.47
2023-02-02T23:32:24.257Z,99375.09
2023-02-02T23:34:51.327Z,99389.38
2023-02-02T23:37:18.155Z,99383.25
2023-02-02T23:39:45.254Z,99384.13
2023-02-02T23:42:11.991Z,99395.78
2023-02-02T23:44:39.070Z,99403.09
2023-02-02T23:47:05.820Z,99406.56
2023-02-02T23:49:33.002Z,99403.84
2023-02-02T23:51:59.941Z,99412.09
2023-02-02T23:54:27.190Z,99410.03
2023-02-02T23:56:53.951Z,99405.59
2023-02-02T23:59:21.021Z,99414.63
